createdAt,value
2022-08-11T00:01:29.936Z,7.45
2022-08-11T00:04:05.130Z,7.85
2022-08-11T00:06:35.913Z,8.75
2022-08-11T00:09:06.396Z,7.65
2022-08-11T00:11:40.156Z,9.38
2022-08-11T00:14:37.327Z,10.15
2022-08-11T00:17:11.411Z,10.63
2022-08-11T00:20:14.171Z,11.15
2022-08-11T00:22:33.426Z,11.07
2022-08-11T00:25:22.220Z,10.57
2022-08-11T00:27:50.449Z,10.10
2022-08-11T00:30:17.887Z,11.30
2022-08-11T00:32:55.401Z,9.93
2022-08-11T00:35:51.588Z,11.77
2022-08-11T00:38:17.595Z,9.85
2022-08-11T00:41:11.657Z,7.50
2022-08-11T00:43:48.561Z,8.82
2022-08-11T00:46:26.036Z,9.90
2022-08-11T00:49:12.247Z,10.00
2022-08-11T00:52:04.909Z,7.93
2022-08-11T00:54:42.282Z,7.38
2022-08-11T00:57:37.573Z,9.48
2022-08-11T01:00:21.625Z,7.78
2022-08-11T01:03:13.582Z,8.50
2022-08-11T01:05:59.925Z,7.95
2022-08-11T01:09:09.808Z,6.90
2022-08-11T01:12:20.485Z,7.50
2022-08-11T01:15:07.644Z,7.32
2022-08-11T01:18:18.170Z,7.03
2022-08-11T01:21:00.080Z,6.55
2022-08-11T01:23:55.147Z,7.28
2022-08-11T01:26:57.072Z,7.40
2022-08-11T01:29:49.395Z,8.68
2022-08-11T01:32:40.916Z,8.68
2022-08-11T01:35:27.033Z,10.07
2022-08-11T01:38:12.725Z,10.60
2022-08-11T01:40:42.907Z,7.50
2022-08-11T01:43:37.161Z,9.85
2022-08-11T01:46:21.947Z,9.73
2022-08-11T01:50:06.392Z,10.15
2022-08-11T01:52:10.533Z,9.30
2022-08-11T01:54:46.690Z,9.75
2022-08-11T01:57:23.342Z,9.57
2022-08-11T02:02:44.123Z,9.32
2022-08-11T02:05:50.027Z,10.05
2022-08-11T02:08:33.440Z,10.35
2022-08-11T02:11:22.446Z,9.38
2022-08-11T02:14:13.709Z,10.13
2022-08-11T02:16:47.126Z,10.38
2022-08-11T02:19:36.386Z,9.85
2022-08-11T02:22:32.581Z,10.18
2022-08-11T02:25:11.477Z,9.35
2022-08-11T02:27:53.622Z,9.95
2022-08-11T02:30:26.019Z,9.70
2022-08-11T02:33:21.002Z,9.75
2022-08-11T02:36:12.816Z,9.13
2022-08-11T02:39:11.845Z,9.10
2022-08-11T02:42:32.892Z,9.57
2022-08-11T02:45:30.240Z,8.93
2022-08-11T02:48:39.838Z,8.98
2022-08-11T02:51:31.770Z,9.90
2022-08-11T02:54:26.744Z,8.45
2022-08-11T02:57:16.962Z,9.38
2022-08-11T03:00:08.108Z,8.77
2022-08-11T03:02:43.041Z,9.23
2022-08-11T03:05:12.345Z,8.05
2022-08-11T03:08:03.401Z,8.95
2022-08-11T03:11:09.800Z,8.80
2022-08-11T03:14:05.004Z,8.73
2022-08-11T03:16:47.239Z,8.35
2022-08-11T03:19:17.300Z,7.57
2022-08-11T03:22:12.135Z,8.65
2022-08-11T03:24:57.899Z,8.23
2022-08-11T03:27:40.615Z,8.25
2022-08-11T03:30:16.546Z,8.13
2022-08-11T03:33:17.819Z,7.70
2022-08-11T03:36:20.319Z,7.57
2022-08-11T03:39:09.490Z,7.68
2022-08-11T03:42:01.646Z,7.30
2022-08-11T03:44:42.911Z,7.80
2022-08-11T03:47:26.666Z,7.95
2022-08-11T03:50:25.353Z,8.00
2022-08-11T03:53:17.321Z,8.38
2022-08-11T03:56:03.939Z,7.65
2022-08-11T03:59:08.790Z,7.68
2022-08-11T04:01:51.216Z,8.30
2022-08-11T04:04:36.663Z,7.55
2022-08-11T04:09:54.394Z,7.75
2022-08-11T04:12:36.507Z,7.88
2022-08-11T04:15:50.478Z,7.75
2022-08-11T04:18:30.598Z,7.70
2022-08-11T04:21:25.329Z,8.32
2022-08-11T04:24:39.531Z,7.90
2022-08-11T04:27:53.740Z,7.63
2022-08-11T04:30:58.401Z,7.47
2022-08-11T04:33:52.146Z,7.45
2022-08-11T04:37:10.746Z,7.22
2022-08-11T04:40:01.046Z,7.53
2022-08-11T04:43:19.822Z,7.88
2022-08-11T04:46:31.406Z,8.45
2022-08-11T04:49:48.460Z,8.15
2022-08-11T04:53:07.885Z,7.03
2022-08-11T04:56:16.164Z,7.70
2022-08-11T04:59:15.804Z,8.00
2022-08-11T05:02:17.673Z,8.20
2022-08-11T05:05:25.290Z,7.60
2022-08-11T05:08:38.719Z,8.55
2022-08-11T05:11:24.462Z,8.90
2022-08-11T05:14:37.605Z,10.45
2022-08-11T05:17:29.970Z,9.88
2022-08-11T05:20:15.890Z,9.35
2022-08-11T05:23:08.436Z,9.50
2022-08-11T05:26:44.141Z,8.85
2022-08-11T05:29:19.398Z,8.85
2022-08-11T05:32:17.976Z,9.45
2022-08-11T05:34:54.431Z,9.15
2022-08-11T05:37:34.843Z,9.45
2022-08-11T05:40:34.289Z,8.98
2022-08-11T05:43:32.570Z,9.32
2022-08-11T05:46:20.583Z,8.27
2022-08-11T05:49:08.134Z,7.68
2022-08-11T05:52:05.406Z,7.95
2022-08-11T05:55:06.913Z,7.47
2022-08-11T05:57:48.962Z,7.00
2022-08-11T06:00:20.828Z,8.10
2022-08-11T06:02:57.480Z,8.48
2022-08-11T06:05:43.449Z,7.88
2022-08-11T06:08:13.628Z,7.88
2022-08-11T06:10:43.566Z,7.57
2022-08-11T06:13:14.982Z,7.50
2022-08-11T06:15:49.678Z,6.80
2022-08-11T06:18:18.086Z,7.20
2022-08-11T06:20:51.217Z,6.50
2022-08-11T06:23:23.196Z,5.97
2022-08-11T06:25:56.482Z,6.43
2022-08-11T06:28:45.265Z,6.22
2022-08-11T06:31:26.571Z,5.97
2022-08-11T06:34:06.272Z,5.65
2022-08-11T06:36:44.991Z,5.53
2022-08-11T06:39:39.455Z,5.50
2022-08-11T06:42:14.489Z,6.00
2022-08-11T06:45:01.925Z,5.50
2022-08-11T06:47:29.431Z,5.22
2022-08-11T06:50:18.029Z,5.70
2022-08-11T06:52:47.286Z,5.30
2022-08-11T06:55:57.979Z,4.63
2022-08-11T06:58:49.205Z,5.28
2022-08-11T07:01:27.977Z,5.97
2022-08-11T07:04:07.031Z,6.00
2022-08-11T07:07:17.631Z,5.63
2022-08-11T07:10:23.269Z,4.00
2022-08-11T07:13:45.088Z,3.45
2022-08-11T07:16:10.694Z,3.88
2022-08-11T07:19:00.782Z,3.28
2022-08-11T07:22:02.527Z,2.60
2022-08-11T07:24:59.400Z,2.88
2022-08-11T07:27:57.485Z,2.67
2022-08-11T07:30:25.915Z,2.60
2022-08-11T07:32:58.398Z,2.90
2022-08-11T07:35:48.780Z,3.50
2022-08-11T07:38:43.568Z,2.95
2022-08-11T07:41:16.438Z,2.50
2022-08-11T07:43:50.011Z,2.70
2022-08-11T07:46:37.073Z,2.63
2022-08-11T07:52:09.535Z,2.15
2022-08-11T07:54:38.278Z,2.22
2022-08-11T07:57:47.333Z,2.42
2022-08-11T08:00:34.344Z,2.70
2022-08-11T08:06:28.515Z,2.40
2022-08-11T08:09:15.405Z,2.30
2022-08-11T08:12:03.112Z,2.17
2022-08-11T08:14:50.558Z,2.83
2022-08-11T08:17:37.430Z,1.95
2022-08-11T08:20:07.631Z,2.10
2022-08-11T08:22:39.206Z,2.28
2022-08-11T08:25:08.778Z,2.72
2022-08-11T08:27:38.453Z,3.08
2022-08-11T08:30:25.884Z,2.50
2022-08-11T08:32:53.872Z,2.88
2022-08-11T08:35:21.882Z,2.20
2022-08-11T08:37:52.814Z,2.20
2022-08-11T08:40:20.049Z,2.33
2022-08-11T08:42:55.425Z,2.20
2022-08-11T08:45:24.915Z,2.75
2022-08-11T08:47:59.577Z,2.55
2022-08-11T08:50:52.047Z,2.25
2022-08-11T08:53:29.722Z,2.25
2022-08-11T08:56:00.753Z,2.50
2022-08-11T08:58:29.723Z,2.22
2022-08-11T09:00:58.623Z,2.45
2022-08-11T09:04:06.631Z,2.72
2022-08-11T09:07:11.590Z,2.20
2022-08-11T09:10:07.073Z,2.25
2022-08-11T09:12:38.908Z,2.42
2022-08-11T09:15:10.453Z,2.63
2022-08-11T09:17:46.084Z,2.53
2022-08-11T09:20:20.713Z,6.43
2022-08-11T09:26:17.228Z,2.50
2022-08-11T09:28:47.136Z,2.30
2022-08-11T09:31:16.077Z,2.83
2022-08-11T09:33:44.787Z,2.20
2022-08-11T09:36:32.034Z,2.50
2022-08-11T09:39:19.670Z,2.10
2022-08-11T09:42:00.758Z,2.13
2022-08-11T09:44:49.982Z,2.63
2022-08-11T09:47:28.180Z,2.20
2022-08-11T09:50:02.811Z,2.60
2022-08-11T09:52:38.140Z,2.65
2022-08-11T09:55:11.373Z,2.20
2022-08-11T09:58:05.580Z,2.20
2022-08-11T10:00:40.327Z,2.30
2022-08-11T10:03:30.548Z,1.95
2022-08-11T10:06:20.173Z,2.10
2022-08-11T10:09:01.045Z,1.73
2022-08-11T10:11:29.101Z,1.98
2022-08-11T10:14:33.428Z,2.15
2022-08-11T10:17:06.946Z,1.70
2022-08-11T10:19:37.259Z,1.98
2022-08-11T10:22:27.557Z,1.73
2022-08-11T10:25:15.607Z,1.80
2022-08-11T10:28:30.740Z,1.95
2022-08-11T10:31:06.839Z,2.45
2022-08-11T10:34:00.578Z,2.00
2022-08-11T10:36:34.465Z,2.33
2022-08-11T10:39:04.554Z,1.95
2022-08-11T10:42:06.613Z,2.10
2022-08-11T10:44:45.869Z,2.17
2022-08-11T10:47:33.388Z,3.67
2022-08-11T10:50:26.154Z,2.25
2022-08-11T10:53:12.788Z,1.75
2022-08-11T10:56:01.896Z,1.98
2022-08-11T10:58:48.535Z,1.92
2022-08-11T11:01:24.554Z,1.92
2022-08-11T11:03:54.808Z,2.80
2022-08-11T11:06:29.882Z,2.50
2022-08-11T11:09:24.286Z,2.57
2022-08-11T11:12:30.158Z,2.67
2022-08-11T11:15:17.475Z,2.42
2022-08-11T11:17:57.746Z,3.00
2022-08-11T11:20:40.749Z,2.38
2022-08-11T11:23:27.136Z,2.65
2022-08-11T11:26:27.298Z,2.53
2022-08-11T11:29:03.954Z,2.40
2022-08-11T11:31:34.670Z,4.57
2022-08-11T11:34:12.247Z,2.28
2022-08-11T11:36:57.720Z,2.35
2022-08-11T11:39:27.956Z,3.05
2022-08-11T11:41:57.517Z,2.70
2022-08-11T11:44:25.670Z,2.63
2022-08-11T11:46:53.177Z,3.40
2022-08-11T11:51:58.920Z,2.40
2022-08-11T11:54:30.203Z,3.45
2022-08-11T11:57:20.125Z,2.47
2022-08-11T12:00:08.928Z,2.60
2022-08-11T12:02:40.958Z,2.10
2022-08-11T12:05:10.449Z,3.03
2022-08-11T12:08:10.339Z,2.92
2022-08-11T12:10:43.699Z,2.42
2022-08-11T12:13:30.548Z,2.53
2022-08-11T12:16:34.807Z,2.40
2022-08-11T12:18:54.687Z,2.70
2022-08-11T12:21:23.136Z,2.45
2022-08-11T12:24:09.403Z,2.53
2022-08-11T12:27:15.039Z,2.13
2022-08-11T12:29:43.821Z,2.20
2022-08-11T12:32:12.027Z,2.25
2022-08-11T12:34:39.203Z,2.30
2022-08-11T12:37:13.249Z,2.10
2022-08-11T12:40:16.909Z,2.45
2022-08-11T12:43:21.204Z,2.72
2022-08-11T12:45:54.386Z,2.33
2022-08-11T12:49:00.493Z,1.98
2022-08-11T12:52:10.904Z,2.35
2022-08-11T12:55:07.511Z,2.38
2022-08-11T12:58:05.828Z,2.55
2022-08-11T13:00:52.414Z,2.28
2022-08-11T13:03:39.890Z,2.28
2022-08-11T13:06:08.132Z,1.98
2022-08-11T13:08:41.215Z,2.35
2022-08-11T13:11:54.542Z,1.90
2022-08-11T13:14:17.240Z,1.70
2022-08-11T13:17:04.162Z,1.70
2022-08-11T13:19:32.661Z,2.33
2022-08-11T13:22:01.193Z,2.15
2022-08-11T13:24:30.409Z,2.45
2022-08-11T13:26:58.548Z,2.00
2022-08-11T13:29:28.988Z,2.25
2022-08-11T13:32:01.876Z,2.25
2022-08-11T13:34:35.396Z,1.90
2022-08-11T13:37:06.093Z,2.42
2022-08-11T13:39:35.533Z,2.90
2022-08-11T13:42:04.565Z,2.50
2022-08-11T13:44:36.908Z,2.70
2022-08-11T13:47:07.152Z,2.70
2022-08-11T13:49:40.495Z,2.75
2022-08-11T13:52:16.509Z,2.58
2022-08-11T13:54:46.857Z,2.63
2022-08-11T13:58:08.755Z,3.13
2022-08-11T14:00:14.550Z,1.95
2022-08-11T14:02:57.233Z,2.70
2022-08-11T14:05:46.889Z,2.83
2022-08-11T14:08:38.188Z,1.88
2022-08-11T14:12:21.750Z,2.28
2022-08-11T14:14:21.492Z,2.03
2022-08-11T14:16:51.619Z,2.05
2022-08-11T14:19:22.894Z,1.90
2022-08-11T14:22:11.151Z,2.88
2022-08-11T14:24:49.532Z,2.45
2022-08-11T14:28:31.984Z,2.60
2022-08-11T14:30:26.487Z,2.40
2022-08-11T14:32:56.106Z,2.53
2022-08-11T14:35:25.896Z,2.05
2022-08-11T14:37:54.251Z,2.10
2022-08-11T14:40:40.127Z,2.35
2022-08-11T14:44:12.885Z,2.45
2022-08-11T14:49:05.531Z,2.47
2022-08-11T14:51:34.557Z,2.50
2022-08-11T14:54:20.756Z,2.28
2022-08-11T14:56:48.677Z,2.00
2022-08-11T14:59:16.109Z,2.08
2022-08-11T15:02:03.435Z,2.63
2022-08-11T15:04:35.931Z,1.83
2022-08-11T15:07:04.808Z,2.10
2022-08-11T15:12:35.224Z,2.72
2022-08-11T15:15:23.693Z,4.20
2022-08-11T15:17:57.563Z,2.45
2022-08-11T15:20:46.313Z,2.08
2022-08-11T15:23:33.097Z,2.00
2022-08-11T15:29:09.381Z,1.90
2022-08-11T15:31:44.325Z,2.50
2022-08-11T15:34:44.407Z,2.92
2022-08-11T15:37:27.194Z,2.30
2022-08-11T15:40:31.463Z,2.17
2022-08-11T15:43:33.660Z,2.72
2022-08-11T15:46:07.685Z,2.42
2022-08-11T15:49:02.883Z,2.40
2022-08-11T15:51:41.750Z,1.95
2022-08-11T15:54:16.321Z,2.08
2022-08-11T15:56:48.321Z,2.20
2022-08-11T15:59:41.930Z,2.40
2022-08-11T16:02:18.030Z,2.53
2022-08-11T16:04:47.794Z,2.20
2022-08-11T16:07:26.706Z,2.20
2022-08-11T16:10:02.761Z,2.17
2022-08-11T16:12:35.651Z,2.50
2022-08-11T16:15:26.330Z,1.92
2022-08-11T16:18:00.513Z,2.50
2022-08-11T16:20:30.066Z,2.35
2022-08-11T16:23:03.058Z,2.60
2022-08-11T16:27:02.836Z,3.05
2022-08-11T16:28:25.477Z,2.80
2022-08-11T16:30:55.004Z,2.92
2022-08-11T16:33:51.349Z,2.80
2022-08-11T16:36:33.517Z,2.83
2022-08-11T16:39:01.820Z,2.70
2022-08-11T16:41:50.994Z,3.42
2022-08-11T16:44:39.674Z,2.72
2022-08-11T16:47:53.878Z,3.05
2022-08-11T16:50:09.423Z,2.70
2022-08-11T16:52:37.221Z,2.88
2022-08-11T16:55:05.936Z,3.22
2022-08-11T16:57:54.567Z,3.80
2022-08-11T17:00:23.552Z,3.42
2022-08-11T17:03:11.612Z,4.38
2022-08-11T17:06:11.257Z,3.92
2022-08-11T17:09:08.539Z,3.28
2022-08-11T17:12:21.272Z,2.88
2022-08-11T17:14:58.298Z,3.95
2022-08-11T17:17:30.454Z,3.00
2022-08-11T17:20:38.569Z,2.08
2022-08-11T17:23:13.164Z,1.90
2022-08-11T17:26:04.049Z,2.00
2022-08-11T17:28:32.089Z,2.13
2022-08-11T17:31:22.684Z,2.05
2022-08-11T17:34:11.243Z,2.10
2022-08-11T17:36:44.532Z,3.08
2022-08-11T17:39:14.523Z,3.20
2022-08-11T17:42:01.839Z,1.90
2022-08-11T17:44:51.146Z,2.10
2022-08-11T17:47:38.528Z,2.08
2022-08-11T17:50:17.109Z,2.20
2022-08-11T17:53:05.427Z,2.25
2022-08-11T17:55:53.875Z,2.15
2022-08-11T17:58:41.718Z,2.28
2022-08-11T18:01:11.416Z,2.70
2022-08-11T18:03:40.923Z,2.88
2022-08-11T18:06:12.745Z,2.90
2022-08-11T18:09:04.512Z,2.60
2022-08-11T18:12:11.240Z,2.90
2022-08-11T18:15:02.802Z,2.63
2022-08-11T18:17:49.054Z,2.75
2022-08-11T18:20:35.858Z,2.70
2022-08-11T18:23:46.546Z,2.53
2022-08-11T18:26:32.314Z,2.75
2022-08-11T18:29:21.226Z,3.10
2022-08-11T18:32:09.607Z,4.10
2022-08-11T18:35:00.767Z,4.93
2022-08-11T18:37:51.291Z,4.57
2022-08-11T18:40:45.005Z,4.85
2022-08-11T18:43:33.714Z,4.80
2022-08-11T18:46:26.907Z,4.63
2022-08-11T18:49:21.102Z,4.85
2022-08-11T18:52:12.995Z,5.20
2022-08-11T18:55:01.914Z,7.07
2022-08-11T18:57:54.124Z,8.10
2022-08-11T19:00:45.237Z,6.30
2022-08-11T19:03:43.321Z,5.57
2022-08-11T19:06:41.051Z,4.95
2022-08-11T19:09:31.971Z,6.07
2022-08-11T19:12:20.300Z,7.03
2022-08-11T19:15:09.714Z,6.53
2022-08-11T19:18:00.324Z,6.32
2022-08-11T19:20:49.834Z,6.32
2022-08-11T19:23:39.704Z,6.93
2022-08-11T19:26:28.023Z,5.95
2022-08-11T19:30:07.091Z,6.93
2022-08-11T19:32:24.024Z,5.97
2022-08-11T19:35:11.177Z,4.72
2022-08-11T19:37:59.733Z,3.80
2022-08-11T19:40:47.692Z,4.05
2022-08-11T19:43:37.133Z,4.35
2022-08-11T19:46:27.129Z,4.30
2022-08-11T19:49:15.867Z,5.50
2022-08-11T19:52:03.548Z,5.22
2022-08-11T19:54:52.919Z,5.95
2022-08-11T19:57:42.462Z,7.28
2022-08-11T20:00:34.138Z,6.75
2022-08-11T20:03:22.556Z,7.65
2022-08-11T20:06:09.621Z,6.30
2022-08-11T20:08:59.262Z,6.10
2022-08-11T20:11:50.455Z,6.07
2022-08-11T20:14:40.163Z,6.15
2022-08-11T20:17:28.290Z,6.75
2022-08-11T20:20:17.161Z,6.60
2022-08-11T20:23:05.333Z,6.50
2022-08-11T20:25:55.801Z,6.53
2022-08-11T20:28:51.595Z,6.80
2022-08-11T20:31:41.760Z,6.55
2022-08-11T20:34:28.280Z,6.28
2022-08-11T20:37:15.453Z,7.70
2022-08-11T20:40:03.658Z,8.00
2022-08-11T20:42:52.492Z,7.60
2022-08-11T20:48:49.488Z,7.20
2022-08-11T20:51:38.806Z,7.15
2022-08-11T20:54:38.423Z,7.15
2022-08-11T20:57:54.572Z,7.57
2022-08-11T21:00:41.493Z,6.85
2022-08-11T21:06:37.531Z,7.03
2022-08-11T21:09:58.866Z,7.47
2022-08-11T21:12:35.779Z,6.38
2022-08-11T21:15:47.514Z,5.18
2022-08-11T21:18:35.353Z,5.10
2022-08-11T21:21:25.717Z,4.38
2022-08-11T21:24:13.244Z,5.60
2022-08-11T21:27:06.697Z,4.90
2022-08-11T21:29:55.111Z,5.57
2022-08-11T21:32:43.356Z,4.43
2022-08-11T21:35:30.859Z,4.40
2022-08-11T21:38:17.463Z,3.60
2022-08-11T21:41:05.891Z,3.90
2022-08-11T21:43:53.536Z,3.42
2022-08-11T21:46:41.306Z,4.15
2022-08-11T21:49:28.942Z,3.90
2022-08-11T21:52:15.355Z,3.40
2022-08-11T21:55:02.435Z,3.45
2022-08-11T21:57:50.699Z,3.40
2022-08-11T22:00:37.104Z,3.80
2022-08-11T22:03:24.615Z,4.13
2022-08-11T22:06:12.718Z,4.55
2022-08-11T22:08:58.670Z,3.55
2022-08-11T22:11:44.684Z,3.38
2022-08-11T22:14:32.511Z,3.38
2022-08-11T22:17:20.553Z,3.33
2022-08-11T22:20:08.022Z,4.10
2022-08-11T22:22:56.240Z,3.65
2022-08-11T22:25:53.772Z,3.60
2022-08-11T22:28:41.711Z,3.70
2022-08-11T22:31:32.363Z,3.72
2022-08-11T22:34:18.627Z,3.85
2022-08-11T22:37:07.297Z,3.70
2022-08-11T22:40:00.740Z,3.97
2022-08-11T22:42:53.465Z,4.30
2022-08-11T22:45:40.068Z,3.58
2022-08-11T22:48:28.528Z,3.50
2022-08-11T22:51:14.225Z,3.83
2022-08-11T22:54:01.567Z,3.97
2022-08-11T22:56:49.584Z,4.00
2022-08-11T22:59:38.712Z,4.07
2022-08-11T23:02:25.999Z,4.00
2022-08-11T23:05:13.955Z,4.22
2022-08-11T23:08:00.620Z,4.13
2022-08-11T23:10:47.761Z,3.85
2022-08-11T23:16:21.329Z,4.13
2022-08-11T23:19:08.174Z,4.78
2022-08-11T23:21:55.134Z,4.60
2022-08-11T23:24:43.224Z,4.47
2022-08-11T23:27:30.873Z,4.15
2022-08-11T23:30:19.226Z,4.25
2022-08-11T23:33:10.646Z,4.65
2022-08-11T23:36:03.561Z,4.50
2022-08-11T23:38:52.342Z,4.88
2022-08-11T23:41:39.235Z,4.40
2022-08-11T23:44:26.993Z,4.57
2022-08-11T23:47:14.920Z,4.78
2022-08-11T23:50:01.617Z,4.72
2022-08-11T23:52:49.030Z,4.90
2022-08-11T23:55:40.656Z,4.55
2022-08-11T23:58:27.280Z,4.85
